createdAt,value
2023-04-18T00:01:42.804Z,10.31
2023-04-18T00:04:09.721Z,9.99
2023-04-18T00:06:36.449Z,10.28
2023-04-18T00:09:03.958Z,10.30
2023-04-18T00:11:30.575Z,10.34
2023-04-18T00:14:00.502Z,10.34
2023-04-18T00:16:28.301Z,10.12
2023-04-18T00:18:55.477Z,10.17
2023-04-18T00:21:22.744Z,10.27
2023-04-18T00:23:49.446Z,10.13
2023-04-18T00:26:16.011Z,10.26
2023-04-18T00:28:42.622Z,10.20
2023-04-18T00:31:09.205Z,10.05
2023-04-18T00:33:35.781Z,10.11
2023-04-18T00:36:02.392Z,9.98
2023-04-18T00:38:28.952Z,10.08
2023-04-18T00:40:55.577Z,10.16
2023-04-18T00:43:25.440Z,10.03
2023-04-18T00:45:52.572Z,10.19
2023-04-18T00:48:19.245Z,10.08
2023-04-18T00:50:45.930Z,9.92
2023-04-18T00:53:13.558Z,9.81
2023-04-18T00:55:41.401Z,10.14
2023-04-18T00:58:08.173Z,9.95
2023-04-18T01:00:34.799Z,9.94
2023-04-18T01:03:01.516Z,9.95
2023-04-18T01:05:28.281Z,10.06
2023-04-18T01:08:01.059Z,9.97
2023-04-18T01:10:28.798Z,9.87
2023-04-18T01:13:15.150Z,9.90
2023-04-18T01:15:43.740Z,9.74
2023-04-18T01:18:11.774Z,9.87
2023-04-18T01:20:41.773Z,9.86
2023-04-18T01:23:10.600Z,9.86
2023-04-18T01:25:38.118Z,9.81
2023-04-18T01:28:06.216Z,10.05
2023-04-18T01:30:33.871Z,9.82
2023-04-18T01:33:01.468Z,9.98
2023-04-18T01:35:28.621Z,10.00
2023-04-18T01:37:55.765Z,10.08
2023-04-18T01:40:22.414Z,9.92
2023-04-18T01:42:49.113Z,10.05
2023-04-18T01:45:16.618Z,10.09
2023-04-18T01:47:43.750Z,9.93
2023-04-18T01:50:10.944Z,9.86
2023-04-18T01:52:37.509Z,10.03
2023-04-18T01:55:04.588Z,10.07
2023-04-18T01:57:31.157Z,10.00
2023-04-18T01:59:57.841Z,9.86
2023-04-18T02:02:24.584Z,10.09
2023-04-18T02:04:51.316Z,9.94
2023-04-18T02:07:17.844Z,9.94
2023-04-18T02:09:44.367Z,10.08
2023-04-18T02:12:12.659Z,10.02
2023-04-18T02:14:39.286Z,9.94
2023-04-18T02:17:05.860Z,10.05
2023-04-18T02:19:32.376Z,10.11
2023-04-18T02:21:59.065Z,10.20
2023-04-18T02:24:25.782Z,10.10
2023-04-18T02:26:52.349Z,10.02
2023-04-18T02:29:18.965Z,10.15
2023-04-18T02:31:45.677Z,10.14
2023-04-18T02:34:12.711Z,9.98
2023-04-18T02:36:39.543Z,10.21
2023-04-18T02:39:06.262Z,10.20
2023-04-18T02:41:34.727Z,10.02
2023-04-18T02:44:01.314Z,10.05
2023-04-18T02:46:28.013Z,10.09
2023-04-18T02:48:54.590Z,10.07
2023-04-18T02:51:21.295Z,10.09
2023-04-18T02:53:48.404Z,10.12
2023-04-18T02:56:17.146Z,10.19
2023-04-18T02:58:43.757Z,10.10
2023-04-18T03:01:10.407Z,10.09
2023-04-18T03:03:36.993Z,10.12
2023-04-18T03:06:03.740Z,10.19
2023-04-18T03:08:30.261Z,10.01
2023-04-18T03:10:56.843Z,9.91
2023-04-18T03:13:23.388Z,10.01
2023-04-18T03:15:50.083Z,9.94
2023-04-18T03:18:16.947Z,10.05
2023-04-18T03:20:43.595Z,9.90
2023-04-18T03:23:10.262Z,10.20
2023-04-18T03:25:37.227Z,10.10
2023-04-18T03:28:03.870Z,10.23
2023-04-18T03:30:31.393Z,10.06
2023-04-18T03:32:58.692Z,9.99
2023-04-18T03:35:25.624Z,10.15
2023-04-18T03:37:52.191Z,10.16
2023-04-18T03:40:19.125Z,10.18
2023-04-18T03:42:45.752Z,9.99
2023-04-18T03:45:12.417Z,10.08
2023-04-18T03:47:39.083Z,10.29
2023-04-18T03:50:06.310Z,10.15
2023-04-18T03:52:32.886Z,10.12
2023-04-18T03:54:59.716Z,10.18
2023-04-18T03:57:26.422Z,10.11
2023-04-18T03:59:53.059Z,10.03
2023-04-18T04:02:19.736Z,10.13
2023-04-18T04:04:47.066Z,10.15
2023-04-18T04:07:13.922Z,9.96
2023-04-18T04:09:40.466Z,10.05
2023-04-18T04:12:07.049Z,10.12
2023-04-18T04:14:33.572Z,10.10
2023-04-18T04:17:00.231Z,9.94
2023-04-18T04:19:26.720Z,10.21
2023-04-18T04:21:53.328Z,10.10
2023-04-18T04:24:20.499Z,10.11
2023-04-18T04:26:48.749Z,10.05
2023-04-18T04:29:16.427Z,9.86
2023-04-18T04:31:43.095Z,10.09
2023-04-18T04:34:09.758Z,10.07
2023-04-18T04:36:36.407Z,10.15
2023-04-18T04:39:05.913Z,10.05
2023-04-18T04:41:32.481Z,9.97
2023-04-18T04:43:59.666Z,10.00
2023-04-18T04:46:29.376Z,10.03
2023-04-18T04:48:56.379Z,9.88
2023-04-18T04:51:23.018Z,10.09
2023-04-18T04:53:49.602Z,10.00
2023-04-18T04:56:16.221Z,9.98
2023-04-18T04:58:42.794Z,10.16
2023-04-18T05:01:09.371Z,10.21
2023-04-18T05:03:36.703Z,9.98
2023-04-18T05:06:03.763Z,10.16
2023-04-18T05:08:30.466Z,10.31
2023-04-18T05:10:57.084Z,10.11
2023-04-18T05:13:23.639Z,10.12
2023-04-18T05:15:50.321Z,10.27
2023-04-18T05:18:16.941Z,10.28
2023-04-18T05:20:43.509Z,10.21
2023-04-18T05:23:10.223Z,10.42
2023-04-18T05:25:36.950Z,10.27
2023-04-18T05:28:08.272Z,10.26
2023-04-18T05:30:35.165Z,10.33
2023-04-18T05:33:01.823Z,10.27
2023-04-18T05:35:28.430Z,10.26
2023-04-18T05:37:54.982Z,10.33
2023-04-18T05:40:21.620Z,10.54
2023-04-18T05:42:48.119Z,10.28
2023-04-18T05:45:14.714Z,10.39
2023-04-18T05:47:42.507Z,10.57
2023-04-18T05:50:09.339Z,10.71
2023-04-18T05:52:38.128Z,10.58
2023-04-18T05:55:06.259Z,10.42
2023-04-18T05:57:33.047Z,10.48
2023-04-18T05:59:59.582Z,10.73
2023-04-18T06:02:26.566Z,10.65
2023-04-18T06:04:53.343Z,10.99
2023-04-18T06:07:21.403Z,11.03
2023-04-18T06:09:49.782Z,10.98
2023-04-18T06:12:16.530Z,11.39
2023-04-18T06:14:43.079Z,11.59
2023-04-18T06:17:10.311Z,11.42
2023-04-18T06:19:36.880Z,11.55
2023-04-18T06:22:03.521Z,11.36
2023-04-18T06:24:31.273Z,10.99
2023-04-18T06:26:58.132Z,11.21
2023-04-18T06:29:27.293Z,11.31
2023-04-18T06:31:54.193Z,11.57
2023-04-18T06:34:20.891Z,11.54
2023-04-18T06:36:47.477Z,11.45
2023-04-18T06:39:14.091Z,11.72
2023-04-18T06:41:40.882Z,11.90
2023-04-18T06:44:07.361Z,11.82
2023-04-18T06:46:34.059Z,12.04
2023-04-18T06:49:00.659Z,11.96
2023-04-18T06:51:27.501Z,12.16
2023-04-18T06:53:54.245Z,12.18
2023-04-18T06:56:21.240Z,12.37
2023-04-18T06:58:48.277Z,12.35
2023-04-18T07:01:15.046Z,12.40
2023-04-18T07:03:41.608Z,12.38
2023-04-18T07:06:10.506Z,12.60
2023-04-18T07:08:37.203Z,12.25
2023-04-18T07:11:03.743Z,12.44
2023-04-18T07:13:30.259Z,12.52
2023-04-18T07:15:56.917Z,12.37
2023-04-18T07:18:36.724Z,12.38
2023-04-18T07:21:07.474Z,12.02
2023-04-18T07:23:34.938Z,12.20
2023-04-18T07:26:02.895Z,12.75
2023-04-18T07:28:31.019Z,12.47
2023-04-18T07:30:58.087Z,12.65
2023-04-18T07:33:25.637Z,12.61
2023-04-18T07:35:53.100Z,12.97
2023-04-18T07:38:19.816Z,13.08
2023-04-18T07:40:46.382Z,12.92
2023-04-18T07:43:12.893Z,12.67
2023-04-18T07:45:39.582Z,13.14
2023-04-18T07:48:06.521Z,13.44
2023-04-18T07:50:33.096Z,13.85
2023-04-18T07:52:59.711Z,13.40
2023-04-18T07:55:26.433Z,13.86
2023-04-18T07:57:52.989Z,14.21
2023-04-18T08:00:19.830Z,14.04
2023-04-18T08:02:46.597Z,14.01
2023-04-18T08:05:13.407Z,14.02
2023-04-18T08:07:40.910Z,13.60
2023-04-18T08:10:07.982Z,14.17
2023-04-18T08:12:36.260Z,14.25
2023-04-18T08:15:03.643Z,13.94
2023-04-18T08:17:31.223Z,14.23
2023-04-18T08:19:57.863Z,14.40
2023-04-18T08:22:24.516Z,14.80
2023-04-18T08:25:03.851Z,14.42
2023-04-18T08:27:32.290Z,14.47
2023-04-18T08:29:58.880Z,15.00
2023-04-18T08:32:25.999Z,14.40
2023-04-18T08:34:52.618Z,14.56
2023-04-18T08:37:19.084Z,14.38
2023-04-18T08:39:45.785Z,14.24
2023-04-18T08:42:17.120Z,14.80
2023-04-18T08:44:45.114Z,15.25
2023-04-18T08:47:12.785Z,15.10
2023-04-18T08:49:40.107Z,15.52
2023-04-18T08:52:14.811Z,16.43
2023-04-18T08:54:42.854Z,15.96
2023-04-18T08:57:12.577Z,16.29
2023-04-18T08:59:40.218Z,16.30
2023-04-18T09:02:09.009Z,16.09
2023-04-18T09:04:41.400Z,16.28
2023-04-18T09:07:10.899Z,15.86
2023-04-18T09:09:53.957Z,16.03
2023-04-18T09:12:22.734Z,15.72
2023-04-18T09:14:51.561Z,15.72
2023-04-18T09:17:41.544Z,15.31
2023-04-18T09:20:10.872Z,15.92
2023-04-18T09:22:51.906Z,15.46
2023-04-18T09:25:34.930Z,16.40
2023-04-18T09:28:03.705Z,15.71
2023-04-18T09:30:39.350Z,15.69
2023-04-18T09:33:10.293Z,15.82
2023-04-18T09:35:38.040Z,15.74
2023-04-18T09:38:05.779Z,16.24
2023-04-18T09:40:32.925Z,15.90
2023-04-18T09:42:59.996Z,15.98
2023-04-18T09:45:27.247Z,16.31
2023-04-18T09:47:53.995Z,16.53
2023-04-18T09:50:20.940Z,16.40
2023-04-18T09:52:48.408Z,16.42
2023-04-18T09:55:19.956Z,15.86
2023-04-18T09:57:48.424Z,15.97
2023-04-18T10:00:24.437Z,16.06
2023-04-18T10:03:06.193Z,16.82
2023-04-18T10:05:35.958Z,16.77
2023-04-18T10:08:04.007Z,17.11
2023-04-18T10:10:30.714Z,17.11
2023-04-18T10:12:58.729Z,17.18
2023-04-18T10:15:27.477Z,16.70
2023-04-18T10:18:05.215Z,16.28
2023-04-18T10:20:35.199Z,16.19
2023-04-18T10:23:30.920Z,16.29
2023-04-18T10:25:58.457Z,15.27
2023-04-18T10:28:26.643Z,15.69
2023-04-18T10:31:03.794Z,15.83
2023-04-18T10:33:41.112Z,15.86
2023-04-18T10:36:09.031Z,15.67
2023-04-18T10:38:45.303Z,15.40
2023-04-18T10:41:25.433Z,15.94
2023-04-18T10:44:14.686Z,16.04
2023-04-18T10:46:51.087Z,15.51
2023-04-18T10:49:30.230Z,16.36
2023-04-18T10:52:00.206Z,17.00
2023-04-18T10:54:59.100Z,16.14
2023-04-18T10:57:37.839Z,16.54
2023-04-18T11:00:06.171Z,16.85
2023-04-18T11:02:33.663Z,16.91
2023-04-18T11:05:01.780Z,17.18
2023-04-18T11:07:48.779Z,17.23
2023-04-18T11:10:21.239Z,16.35
2023-04-18T11:12:48.278Z,16.36
2023-04-18T11:15:22.971Z,16.41
2023-04-18T11:18:03.937Z,15.97
2023-04-18T11:20:38.810Z,16.25
2023-04-18T11:23:25.150Z,16.10
2023-04-18T11:25:54.483Z,16.01
2023-04-18T11:28:22.364Z,16.30
2023-04-18T11:30:49.090Z,16.08
2023-04-18T11:33:15.812Z,15.85
2023-04-18T11:35:46.567Z,15.67
2023-04-18T11:38:15.838Z,15.65
2023-04-18T11:40:49.580Z,15.76
2023-04-18T11:43:21.508Z,15.84
2023-04-18T11:45:55.874Z,15.90
2023-04-18T11:48:23.117Z,15.92
2023-04-18T11:50:50.015Z,15.98
2023-04-18T11:53:35.015Z,16.50
2023-04-18T11:56:03.620Z,16.11
2023-04-18T11:58:34.374Z,15.88
2023-04-18T12:01:22.387Z,15.67
2023-04-18T12:04:08.642Z,14.87
2023-04-18T12:06:49.366Z,15.20
2023-04-18T12:09:17.253Z,15.12
2023-04-18T12:11:44.144Z,15.61
2023-04-18T12:14:21.655Z,15.49
2023-04-18T12:16:52.120Z,15.62
2023-04-18T12:19:20.787Z,16.33
2023-04-18T12:22:01.159Z,16.43
2023-04-18T12:24:31.996Z,16.15
2023-04-18T12:26:59.397Z,16.00
2023-04-18T12:29:28.887Z,16.05
2023-04-18T12:31:55.817Z,16.31
2023-04-18T12:34:22.400Z,16.03
2023-04-18T12:36:48.942Z,15.89
2023-04-18T12:39:15.529Z,15.65
2023-04-18T12:41:42.148Z,16.00
2023-04-18T12:44:09.365Z,16.52
2023-04-18T12:46:36.082Z,16.22
2023-04-18T12:49:02.668Z,16.49
2023-04-18T12:51:29.237Z,16.34
2023-04-18T12:53:56.739Z,16.03
2023-04-18T12:56:23.384Z,16.41
2023-04-18T12:58:49.894Z,16.37
2023-04-18T13:01:17.204Z,16.23
2023-04-18T13:03:45.617Z,16.08
2023-04-18T13:06:15.717Z,15.85
2023-04-18T13:08:42.704Z,16.19
2023-04-18T13:11:09.227Z,16.21
2023-04-18T13:13:36.302Z,16.15
2023-04-18T13:16:02.905Z,16.48
2023-04-18T13:18:29.502Z,16.54
2023-04-18T13:20:56.030Z,16.35
2023-04-18T13:23:22.680Z,16.49
2023-04-18T13:25:49.312Z,16.78
2023-04-18T13:28:15.937Z,16.38
2023-04-18T13:30:42.542Z,16.66
2023-04-18T13:33:10.301Z,16.80
2023-04-18T13:35:37.244Z,16.36
2023-04-18T13:38:04.091Z,16.75
2023-04-18T13:40:30.736Z,16.82
2023-04-18T13:42:57.371Z,16.62
2023-04-18T13:45:23.925Z,16.48
2023-04-18T13:47:51.007Z,16.56
2023-04-18T13:50:17.772Z,16.87
2023-04-18T13:52:44.683Z,17.00
2023-04-18T13:55:12.354Z,16.71
2023-04-18T13:57:39.255Z,17.16
2023-04-18T14:00:06.695Z,16.95
2023-04-18T14:02:33.450Z,17.21
2023-04-18T14:05:00.514Z,17.03
2023-04-18T14:07:27.283Z,17.24
2023-04-18T14:09:54.139Z,17.00
2023-04-18T14:12:21.044Z,17.14
2023-04-18T14:14:47.924Z,17.68
2023-04-18T14:17:14.656Z,17.51
2023-04-18T14:19:41.536Z,17.27
2023-04-18T14:22:08.050Z,17.51
2023-04-18T14:24:37.730Z,17.49
2023-04-18T14:27:04.362Z,17.65
2023-04-18T14:29:31.277Z,17.86
2023-04-18T14:31:57.934Z,17.49
2023-04-18T14:34:24.584Z,17.44
2023-04-18T14:36:51.168Z,17.41
2023-04-18T14:39:17.740Z,17.64
2023-04-18T14:41:45.901Z,17.88
2023-04-18T14:44:13.538Z,18.00
2023-04-18T14:46:40.164Z,17.54
2023-04-18T14:49:06.770Z,17.75
2023-04-18T14:51:33.342Z,17.81
2023-04-18T14:53:59.905Z,18.16
2023-04-18T14:56:26.964Z,19.75
2023-04-18T14:58:53.497Z,20.21
2023-04-18T15:01:20.128Z,21.31
2023-04-18T15:03:46.971Z,21.46
2023-04-18T15:06:13.722Z,20.47
2023-04-18T15:08:40.638Z,20.09
2023-04-18T15:11:08.199Z,21.01
2023-04-18T15:13:34.965Z,20.50
2023-04-18T15:16:01.924Z,22.04
2023-04-18T15:18:28.895Z,22.34
2023-04-18T15:20:57.042Z,21.62
2023-04-18T15:23:23.662Z,21.38
2023-04-18T15:25:50.225Z,21.89
2023-04-18T15:28:18.314Z,21.18
2023-04-18T15:30:45.858Z,21.69
2023-04-18T15:33:13.645Z,21.56
2023-04-18T15:35:40.309Z,23.30
2023-04-18T15:38:06.905Z,22.77
2023-04-18T15:40:33.601Z,22.83
2023-04-18T15:43:00.304Z,23.68
2023-04-18T15:45:26.858Z,24.08
2023-04-18T15:47:53.545Z,24.01
2023-04-18T15:50:20.515Z,23.85
2023-04-18T15:52:47.087Z,23.75
2023-04-18T15:55:13.746Z,22.89
2023-04-18T15:57:41.743Z,23.20
2023-04-18T16:00:13.996Z,23.54
2023-04-18T16:02:40.749Z,23.09
2023-04-18T16:05:08.527Z,22.71
2023-04-18T16:07:35.121Z,23.56
2023-04-18T16:10:03.659Z,22.03
2023-04-18T16:12:30.280Z,22.35
2023-04-18T16:14:56.870Z,22.32
2023-04-18T16:17:23.639Z,22.74
2023-04-18T16:19:50.247Z,23.88
2023-04-18T16:22:16.824Z,22.47
2023-04-18T16:24:43.410Z,22.38
2023-04-18T16:27:09.959Z,23.15
2023-04-18T16:29:36.498Z,23.13
2023-04-18T16:32:03.090Z,23.58
2023-04-18T16:34:29.691Z,23.04
2023-04-18T16:36:56.228Z,24.06
2023-04-18T16:39:22.819Z,25.01
2023-04-18T16:41:49.376Z,22.81
2023-04-18T16:44:16.187Z,21.34
2023-04-18T16:46:43.087Z,19.58
2023-04-18T16:49:09.852Z,18.71
2023-04-18T16:51:37.883Z,18.65
2023-04-18T16:54:06.294Z,18.02
2023-04-18T16:56:34.139Z,17.40
2023-04-18T16:59:00.791Z,17.44
2023-04-18T17:01:27.368Z,17.27
2023-04-18T17:03:54.035Z,17.12
2023-04-18T17:06:22.707Z,17.01
2023-04-18T17:08:49.554Z,16.86
2023-04-18T17:11:16.079Z,16.47
2023-04-18T17:13:42.734Z,16.35
2023-04-18T17:16:09.296Z,16.55
2023-04-18T17:18:35.941Z,16.45
2023-04-18T17:21:02.532Z,16.36
2023-04-18T17:23:30.391Z,16.33
2023-04-18T17:25:58.804Z,16.32
2023-04-18T17:28:25.369Z,16.11
2023-04-18T17:30:52.063Z,16.08
2023-04-18T17:33:18.625Z,15.76
2023-04-18T17:35:45.170Z,15.76
2023-04-18T17:38:11.823Z,15.75
2023-04-18T17:40:39.679Z,15.72
2023-04-18T17:43:06.335Z,15.78
2023-04-18T17:45:32.902Z,15.63
2023-04-18T17:48:02.154Z,15.92
2023-04-18T17:50:28.809Z,15.57
2023-04-18T17:52:55.686Z,15.40
2023-04-18T17:55:22.279Z,15.39
2023-04-18T17:57:49.051Z,15.49
2023-04-18T18:00:16.036Z,15.33
2023-04-18T18:02:42.948Z,15.26
2023-04-18T18:05:14.271Z,15.11
2023-04-18T18:07:44.125Z,15.20
2023-04-18T18:10:11.501Z,15.26
2023-04-18T18:12:38.317Z,14.98
2023-04-18T18:15:05.578Z,14.85
2023-04-18T18:17:32.150Z,14.72
2023-04-18T18:19:58.764Z,14.74
2023-04-18T18:22:26.153Z,14.79
2023-04-18T18:24:52.900Z,14.70
2023-04-18T18:27:20.382Z,14.52
2023-04-18T18:29:48.098Z,14.23
2023-04-18T18:32:15.147Z,14.17
2023-04-18T18:34:41.740Z,13.94
2023-04-18T18:37:08.352Z,13.80
2023-04-18T18:39:36.664Z,13.98
2023-04-18T18:42:03.379Z,14.12
2023-04-18T18:44:30.610Z,13.96
2023-04-18T18:46:58.790Z,13.68
2023-04-18T18:49:26.610Z,13.79
2023-04-18T18:51:53.563Z,13.84
2023-04-18T18:54:20.130Z,13.81
2023-04-18T18:56:46.877Z,13.64
2023-04-18T18:59:13.661Z,13.65
2023-04-18T19:01:40.857Z,13.54
2023-04-18T19:04:07.850Z,13.40
2023-04-18T19:06:35.156Z,13.34
2023-04-18T19:09:01.802Z,13.49
2023-04-18T19:11:29.224Z,13.40
2023-04-18T19:13:55.804Z,13.42
2023-04-18T19:16:22.634Z,13.38
2023-04-18T19:18:50.649Z,13.41
2023-04-18T19:21:17.763Z,13.38
2023-04-18T19:23:44.531Z,13.45
2023-04-18T19:26:11.107Z,13.30
2023-04-18T19:28:37.748Z,13.28
2023-04-18T19:31:04.471Z,13.44
2023-04-18T19:33:31.087Z,13.24
2023-04-18T19:35:58.223Z,13.26
2023-04-18T19:38:24.875Z,13.23
2023-04-18T19:40:51.551Z,13.22
2023-04-18T19:43:18.162Z,13.23
2023-04-18T19:45:44.942Z,13.09
2023-04-18T19:48:11.992Z,13.12
2023-04-18T19:50:42.319Z,13.24
2023-04-18T19:53:08.976Z,13.00
2023-04-18T19:55:35.682Z,13.04
2023-04-18T19:58:02.229Z,13.06
2023-04-18T20:00:29.383Z,12.91
2023-04-18T20:02:58.346Z,12.95
2023-04-18T20:05:25.367Z,12.82
2023-04-18T20:07:51.983Z,12.76
2023-04-18T20:10:22.339Z,12.78
2023-04-18T20:12:50.073Z,12.90
2023-04-18T20:15:16.992Z,12.82
2023-04-18T20:17:43.589Z,12.81
2023-04-18T20:20:11.415Z,12.77
2023-04-18T20:22:40.331Z,12.72
2023-04-18T20:25:07.312Z,12.69
2023-04-18T20:27:33.913Z,12.74
2023-04-18T20:30:00.482Z,12.65
2023-04-18T20:32:27.256Z,12.52
2023-04-18T20:34:53.966Z,12.52
2023-04-18T20:37:20.742Z,12.54
2023-04-18T20:39:47.722Z,12.49
2023-04-18T20:42:14.372Z,12.38
2023-04-18T20:44:44.152Z,12.42
2023-04-18T20:47:10.739Z,12.35
2023-04-18T20:49:38.121Z,12.36
2023-04-18T20:52:08.249Z,12.25
2023-04-18T20:54:34.767Z,12.29
2023-04-18T20:57:01.522Z,12.26
2023-04-18T20:59:28.288Z,12.18
2023-04-18T21:01:54.932Z,12.19
2023-04-18T21:04:21.655Z,12.26
2023-04-18T21:06:48.412Z,12.09
2023-04-18T21:09:15.297Z,12.16
2023-04-18T21:11:42.115Z,12.00
2023-04-18T21:14:08.715Z,11.98
2023-04-18T21:16:36.756Z,11.92
2023-04-18T21:19:03.358Z,11.83
2023-04-18T21:21:30.107Z,11.78
2023-04-18T21:23:56.659Z,11.89
2023-04-18T21:26:23.269Z,11.83
2023-04-18T21:29:00.707Z,11.88
2023-04-18T21:31:30.148Z,11.80
2023-04-18T21:33:58.653Z,11.84
2023-04-18T21:36:27.127Z,11.74
2023-04-18T21:38:56.022Z,11.68
2023-04-18T21:41:23.199Z,11.65
2023-04-18T21:43:49.964Z,11.75
2023-04-18T21:46:17.231Z,11.59
2023-04-18T21:48:46.235Z,11.57
2023-04-18T21:51:15.353Z,11.55
2023-04-18T21:53:42.449Z,11.44
2023-04-18T21:56:09.354Z,11.43
2023-04-18T21:58:35.887Z,11.39
2023-04-18T22:01:02.882Z,11.52
2023-04-18T22:03:30.250Z,11.50
2023-04-18T22:05:57.604Z,11.49
2023-04-18T22:08:28.568Z,11.38
2023-04-18T22:10:56.364Z,11.21
2023-04-18T22:13:23.646Z,11.11
2023-04-18T22:15:51.503Z,11.06
2023-04-18T22:18:19.101Z,11.22
2023-04-18T22:20:46.909Z,11.18
2023-04-18T22:23:13.947Z,11.03
2023-04-18T22:25:40.897Z,11.03
2023-04-18T22:28:07.615Z,10.99
2023-04-18T22:30:34.630Z,11.04
2023-04-18T22:33:01.309Z,11.18
2023-04-18T22:35:28.062Z,11.08
2023-04-18T22:37:55.571Z,10.99
2023-04-18T22:40:22.277Z,10.91
2023-04-18T22:42:48.836Z,10.87
2023-04-18T22:45:15.602Z,10.84
2023-04-18T22:47:42.234Z,10.89
2023-04-18T22:50:09.256Z,10.88
2023-04-18T22:52:35.934Z,10.79
2023-04-18T22:55:03.454Z,10.75
2023-04-18T22:57:30.275Z,10.82
2023-04-18T22:59:56.774Z,10.77
2023-04-18T23:02:24.555Z,10.80
2023-04-18T23:04:51.405Z,10.69
2023-04-18T23:07:18.035Z,10.76
2023-04-18T23:09:45.141Z,10.90
2023-04-18T23:12:11.641Z,10.72
2023-04-18T23:14:38.941Z,10.70
2023-04-18T23:17:05.576Z,10.65
2023-04-18T23:19:32.047Z,10.71
2023-04-18T23:21:59.844Z,10.65
2023-04-18T23:24:26.881Z,10.60
2023-04-18T23:26:53.426Z,10.64
2023-04-18T23:29:19.961Z,10.46
2023-04-18T23:31:46.545Z,10.50
2023-04-18T23:34:13.265Z,10.55
2023-04-18T23:36:40.581Z,10.52
2023-04-18T23:39:08.431Z,10.51
2023-04-18T23:41:34.902Z,10.48
2023-04-18T23:44:01.415Z,10.58
2023-04-18T23:46:27.985Z,10.58
2023-04-18T23:48:54.662Z,10.40
2023-04-18T23:51:21.168Z,10.44
2023-04-18T23:53:47.796Z,10.28
2023-04-18T23:56:14.327Z,10.24
2023-04-18T23:58:40.918Z,10.28
